Shawnee, Pennsylvania
Current Conditions -  °F | °C
As of 11:30 AM on Saturday 20 Dec 2014 (Local Time) from KMPO Reporting Station
Overcast Overcast  
Wind Chill: 16°   Ceiling: 1500
Heat Index: 25°   Visibility: 10mi
Dew Point: 18°   Wind: 9mph
Humidity: 75%   Direction: 340°NNW
Pressure: 30.17"   Gusts: NA
Location:  41.0124°N, 75.1113°W
Report Text: KMPO 201630Z AUTO 34008KT 10SM OVC015 M04/M08 A3017 RMK AO2 T10391078
Loading
Personal Weather Stations






























Interactive Weather Map New forecast layout! Learn more

10-Day Weather Forecast

Advertisements
Track Severe Weather on mobile